sensor_id;sensor_type;location;lat;lon;timestamp;temperature;humidity
35363;DHT22;21463;47.480;8.214;2022-11-13T00:00:37;21.00;43.40
35363;DHT22;21463;47.480;8.214;2022-11-13T00:02:09;21.00;43.40
35363;DHT22;21463;47.480;8.214;2022-11-13T00:03:32;21.00;43.40
35363;DHT22;21463;47.480;8.214;2022-11-13T00:04:54;21.00;43.40
35363;DHT22;21463;47.480;8.214;2022-11-13T00:06:16;21.00;43.40
35363;DHT22;21463;47.480;8.214;2022-11-13T00:07:38;21.00;43.40
35363;DHT22;21463;47.480;8.214;2022-11-13T00:08:59;21.00;43.40
35363;DHT22;21463;47.480;8.214;2022-11-13T00:10:20;21.00;43.40
35363;DHT22;21463;47.480;8.214;2022-11-13T00:11:41;21.00;43.40
35363;DHT22;21463;47.480;8.214;2022-11-13T00:13:02;21.00;43.40
35363;DHT22;21463;47.480;8.214;2022-11-13T00:14:23;21.10;43.50
35363;DHT22;21463;47.480;8.214;2022-11-13T00:15:44;21.00;43.40
35363;DHT22;21463;47.480;8.214;2022-11-13T00:17:15;21.00;43.40
35363;DHT22;21463;47.480;8.214;2022-11-13T00:18:39;21.00;43.40
35363;DHT22;21463;47.480;8.214;2022-11-13T00:20:01;21.00;43.50
35363;DHT22;21463;47.480;8.214;2022-11-13T00:21:25;21.00;43.40
35363;DHT22;21463;47.480;8.214;2022-11-13T00:22:48;21.00;43.40
35363;DHT22;21463;47.480;8.214;2022-11-13T00:24:09;21.00;43.40
35363;DHT22;21463;47.480;8.214;2022-11-13T00:25:30;21.00;43.40
35363;DHT22;21463;47.480;8.214;2022-11-13T00:26:51;21.10;43.50
35363;DHT22;21463;47.480;8.214;2022-11-13T00:28:12;21.00;43.40
35363;DHT22;21463;47.480;8.214;2022-11-13T00:29:36;21.00;43.40
35363;DHT22;21463;47.480;8.214;2022-11-13T00:31:02;21.10;43.50
35363;DHT22;21463;47.480;8.214;2022-11-13T00:32:25;21.00;43.40
35363;DHT22;21463;47.480;8.214;2022-11-13T00:33:47;21.00;43.40
35363;DHT22;21463;47.480;8.214;2022-11-13T00:35:28;21.00;43.50
35363;DHT22;21463;47.480;8.214;2022-11-13T00:36:49;21.00;43.50
35363;DHT22;21463;47.480;8.214;2022-11-13T00:38:11;21.00;43.50
35363;DHT22;21463;47.480;8.214;2022-11-13T00:39:32;21.00;43.40
35363;DHT22;21463;47.480;8.214;2022-11-13T00:40:55;21.00;43.50
35363;DHT22;21463;47.480;8.214;2022-11-13T00:42:19;20.90;43.40
35363;DHT22;21463;47.480;8.214;2022-11-13T00:43:40;21.00;43.40
35363;DHT22;21463;47.480;8.214;2022-11-13T00:45:21;21.00;43.50
35363;DHT22;21463;47.480;8.214;2022-11-13T00:46:42;21.00;43.50
35363;DHT22;21463;47.480;8.214;2022-11-13T00:48:03;21.00;43.50
35363;DHT22;21463;47.480;8.214;2022-11-13T00:49:24;21.00;43.50
35363;DHT22;21463;47.480;8.214;2022-11-13T00:50:46;21.10;43.50
35363;DHT22;21463;47.480;8.214;2022-11-13T00:52:09;21.00;43.40
35363;DHT22;21463;47.480;8.214;2022-11-13T00:53:30;21.10;43.50
35363;DHT22;21463;47.480;8.214;2022-11-13T00:54:51;21.00;43.40
35363;DHT22;21463;47.480;8.214;2022-11-13T00:56:14;21.10;43.50
35363;DHT22;21463;47.480;8.214;2022-11-13T00:57:35;21.00;43.50
35363;DHT22;21463;47.480;8.214;2022-11-13T00:58:56;21.00;43.40
35363;DHT22;21463;47.480;8.214;2022-11-13T01:00:18;21.00;43.50
35363;DHT22;21463;47.480;8.214;2022-11-13T01:01:46;21.10;43.50
35363;DHT22;21463;47.480;8.214;2022-11-13T01:03:09;21.10;43.50
35363;DHT22;21463;47.480;8.214;2022-11-13T01:04:33;21.00;43.50
35363;DHT22;21463;47.480;8.214;2022-11-13T01:05:57;21.00;43.50
35363;DHT22;21463;47.480;8.214;2022-11-13T01:07:17;21.00;43.50
35363;DHT22;21463;47.480;8.214;2022-11-13T01:08:39;21.00;43.50
35363;DHT22;21463;47.480;8.214;2022-11-13T01:10:02;21.00;43.40
35363;DHT22;21463;47.480;8.214;2022-11-13T01:11:26;21.00;43.50
35363;DHT22;21463;47.480;8.214;2022-11-13T01:12:48;21.00;43.50
35363;DHT22;21463;47.480;8.214;2022-11-13T01:14:12;21.00;43.50
35363;DHT22;21463;47.480;8.214;2022-11-13T01:15:50;21.00;43.50
35363;DHT22;21463;47.480;8.214;2022-11-13T01:17:14;21.00;43.50
35363;DHT22;21463;47.480;8.214;2022-11-13T01:18:39;21.00;44.10
35363;DHT22;21463;47.480;8.214;2022-11-13T01:20:02;21.00;43.50
35363;DHT22;21463;47.480;8.214;2022-11-13T01:21:25;21.00;43.50
35363;DHT22;21463;47.480;8.214;2022-11-13T01:22:49;21.00;43.50
35363;DHT22;21463;47.480;8.214;2022-11-13T01:24:10;21.00;43.50
35363;DHT22;21463;47.480;8.214;2022-11-13T01:25:31;21.00;43.50
35363;DHT22;21463;47.480;8.214;2022-11-13T01:26:55;21.00;43.50
35363;DHT22;21463;47.480;8.214;2022-11-13T01:28:16;21.00;43.50
35363;DHT22;21463;47.480;8.214;2022-11-13T01:29:38;21.00;43.50
35363;DHT22;21463;47.480;8.214;2022-11-13T01:30:59;21.00;43.50
35363;DHT22;21463;47.480;8.214;2022-11-13T01:32:20;21.00;43.50
35363;DHT22;21463;47.480;8.214;2022-11-13T01:33:44;21.00;43.50
35363;DHT22;21463;47.480;8.214;2022-11-13T01:35:08;21.00;43.50
35363;DHT22;21463;47.480;8.214;2022-11-13T01:36:29;21.00;43.50
35363;DHT22;21463;47.480;8.214;2022-11-13T01:37:54;21.00;43.50
35363;DHT22;21463;47.480;8.214;2022-11-13T01:39:16;21.00;43.50
35363;DHT22;21463;47.480;8.214;2022-11-13T01:40:44;21.00;43.50
35363;DHT22;21463;47.480;8.214;2022-11-13T01:42:06;21.00;43.50
35363;DHT22;21463;47.480;8.214;2022-11-13T01:43:30;21.00;43.50
35363;DHT22;21463;47.480;8.214;2022-11-13T01:44:59;21.10;43.50
35363;DHT22;21463;47.480;8.214;2022-11-13T01:46:37;21.00;43.50
35363;DHT22;21463;47.480;8.214;2022-11-13T01:48:01;21.00;43.50
35363;DHT22;21463;47.480;8.214;2022-11-13T01:49:37;21.00;43.50
35363;DHT22;21463;47.480;8.214;2022-11-13T01:51:08;21.00;43.50
35363;DHT22;21463;47.480;8.214;2022-11-13T01:52:38;21.00;43.50
35363;DHT22;21463;47.480;8.214;2022-11-13T01:54:05;21.00;43.50
35363;DHT22;21463;47.480;8.214;2022-11-13T01:55:29;21.00;43.50
35363;DHT22;21463;47.480;8.214;2022-11-13T01:56:51;21.00;43.50
35363;DHT22;21463;47.480;8.214;2022-11-13T01:58:13;21.00;43.50
35363;DHT22;21463;47.480;8.214;2022-11-13T01:59:38;21.00;43.50
35363;DHT22;21463;47.480;8.214;2022-11-13T02:00:59;21.00;43.50
35363;DHT22;21463;47.480;8.214;2022-11-13T02:02:22;21.00;43.50
35363;DHT22;21463;47.480;8.214;2022-11-13T02:03:44;21.00;43.50
35363;DHT22;21463;47.480;8.214;2022-11-13T02:05:05;21.00;43.50
35363;DHT22;21463;47.480;8.214;2022-11-13T02:06:59;21.00;43.50
35363;DHT22;21463;47.480;8.214;2022-11-13T02:08:21;21.00;43.50
35363;DHT22;21463;47.480;8.214;2022-11-13T02:09:50;21.00;43.50
35363;DHT22;21463;47.480;8.214;2022-11-13T02:11:15;21.00;43.50
35363;DHT22;21463;47.480;8.214;2022-11-13T02:12:41;21.00;43.50
35363;DHT22;21463;47.480;8.214;2022-11-13T02:14:04;21.00;43.50
35363;DHT22;21463;47.480;8.214;2022-11-13T02:15:26;21.10;43.60
35363;DHT22;21463;47.480;8.214;2022-11-13T02:16:50;21.00;43.50
35363;DHT22;21463;47.480;8.214;2022-11-13T02:18:15;20.90;43.40
35363;DHT22;21463;47.480;8.214;2022-11-13T02:19:42;21.00;43.50
35363;DHT22;21463;47.480;8.214;2022-11-13T02:24:32;21.00;43.50
35363;DHT22;21463;47.480;8.214;2022-11-13T02:26:02;21.00;43.50
35363;DHT22;21463;47.480;8.214;2022-11-13T02:27:54;21.00;43.50
35363;DHT22;21463;47.480;8.214;2022-11-13T02:29:15;21.00;43.50
35363;DHT22;21463;47.480;8.214;2022-11-13T02:30:36;21.00;43.50
35363;DHT22;21463;47.480;8.214;2022-11-13T02:31:57;21.00;43.50
35363;DHT22;21463;47.480;8.214;2022-11-13T02:33:30;21.00;43.50
35363;DHT22;21463;47.480;8.214;2022-11-13T02:34:53;21.00;43.50
35363;DHT22;21463;47.480;8.214;2022-11-13T02:36:14;21.00;43.50
35363;DHT22;21463;47.480;8.214;2022-11-13T02:37:36;21.00;43.50
35363;DHT22;21463;47.480;8.214;2022-11-13T02:39:01;21.00;43.50
35363;DHT22;21463;47.480;8.214;2022-11-13T02:40:23;21.00;43.50
35363;DHT22;21463;47.480;8.214;2022-11-13T02:41:45;21.00;43.50
35363;DHT22;21463;47.480;8.214;2022-11-13T02:43:06;21.00;43.50
35363;DHT22;21463;47.480;8.214;2022-11-13T02:44:27;21.00;43.50
35363;DHT22;21463;47.480;8.214;2022-11-13T02:46:09;21.00;43.50
35363;DHT22;21463;47.480;8.214;2022-11-13T02:47:30;21.00;43.50
35363;DHT22;21463;47.480;8.214;2022-11-13T02:49:00;21.00;43.50
35363;DHT22;21463;47.480;8.214;2022-11-13T02:50:21;21.00;43.50
35363;DHT22;21463;47.480;8.214;2022-11-13T02:51:45;21.10;43.50
35363;DHT22;21463;47.480;8.214;2022-11-13T02:53:08;21.00;43.50
35363;DHT22;21463;47.480;8.214;2022-11-13T02:54:29;21.00;43.50
35363;DHT22;21463;47.480;8.214;2022-11-13T02:55:55;21.00;43.50
35363;DHT22;21463;47.480;8.214;2022-11-13T02:57:17;21.00;43.50
35363;DHT22;21463;47.480;8.214;2022-11-13T02:58:41;21.00;43.50
35363;DHT22;21463;47.480;8.214;2022-11-13T03:00:03;21.00;43.50
35363;DHT22;21463;47.480;8.214;2022-11-13T03:01:33;21.00;43.50
35363;DHT22;21463;47.480;8.214;2022-11-13T03:02:56;21.00;43.50
35363;DHT22;21463;47.480;8.214;2022-11-13T03:04:18;21.00;43.50
35363;DHT22;21463;47.480;8.214;2022-11-13T03:05:39;21.00;43.50
35363;DHT22;21463;47.480;8.214;2022-11-13T03:07:03;21.00;43.50
35363;DHT22;21463;47.480;8.214;2022-11-13T03:08:25;21.10;43.60
35363;DHT22;21463;47.480;8.214;2022-11-13T03:09:47;21.00;43.50
35363;DHT22;21463;47.480;8.214;2022-11-13T03:11:09;21.00;43.50
35363;DHT22;21463;47.480;8.214;2022-11-13T03:12:31;21.00;43.50
35363;DHT22;21463;47.480;8.214;2022-11-13T03:14:00;21.00;43.50
35363;DHT22;21463;47.480;8.214;2022-11-13T03:15:22;21.00;43.50
35363;DHT22;21463;47.480;8.214;2022-11-13T03:16:43;21.00;43.50
35363;DHT22;21463;47.480;8.214;2022-11-13T03:18:05;21.00;43.50
35363;DHT22;21463;47.480;8.214;2022-11-13T03:19:27;21.00;43.50
35363;DHT22;21463;47.480;8.214;2022-11-13T03:20:51;21.00;43.50
35363;DHT22;21463;47.480;8.214;2022-11-13T03:22:13;21.00;43.50
35363;DHT22;21463;47.480;8.214;2022-11-13T03:23:37;21.00;43.50
35363;DHT22;21463;47.480;8.214;2022-11-13T03:25:00;21.00;43.50
35363;DHT22;21463;47.480;8.214;2022-11-13T03:26:29;21.00;43.50
35363;DHT22;21463;47.480;8.214;2022-11-13T03:27:49;21.00;43.50
35363;DHT22;21463;47.480;8.214;2022-11-13T03:29:11;21.00;43.50
35363;DHT22;21463;47.480;8.214;2022-11-13T03:30:34;21.00;43.50
35363;DHT22;21463;47.480;8.214;2022-11-13T03:31:55;21.10;43.50
35363;DHT22;21463;47.480;8.214;2022-11-13T03:33:16;21.00;43.50
35363;DHT22;21463;47.480;8.214;2022-11-13T03:34:54;21.00;43.50
35363;DHT22;21463;47.480;8.214;2022-11-13T03:36:16;21.00;43.50
35363;DHT22;21463;47.480;8.214;2022-11-13T03:37:37;21.00;43.50
35363;DHT22;21463;47.480;8.214;2022-11-13T03:39:01;21.00;43.50
35363;DHT22;21463;47.480;8.214;2022-11-13T03:40:22;21.00;43.50
35363;DHT22;21463;47.480;8.214;2022-11-13T03:41:44;21.00;43.50
35363;DHT22;21463;47.480;8.214;2022-11-13T03:43:05;21.00;43.50
35363;DHT22;21463;47.480;8.214;2022-11-13T03:44:26;21.00;43.50
35363;DHT22;21463;47.480;8.214;2022-11-13T03:45:47;21.00;43.50
35363;DHT22;21463;47.480;8.214;2022-11-13T03:47:08;21.00;43.50
35363;DHT22;21463;47.480;8.214;2022-11-13T03:48:29;21.00;43.50
35363;DHT22;21463;47.480;8.214;2022-11-13T03:49:52;21.00;43.50
35363;DHT22;21463;47.480;8.214;2022-11-13T03:51:13;21.00;43.50
35363;DHT22;21463;47.480;8.214;2022-11-13T03:52:34;21.00;43.50
35363;DHT22;21463;47.480;8.214;2022-11-13T03:54:00;21.00;43.50
35363;DHT22;21463;47.480;8.214;2022-11-13T03:55:23;21.00;43.50
35363;DHT22;21463;47.480;8.214;2022-11-13T03:56:46;21.00;43.50
35363;DHT22;21463;47.480;8.214;2022-11-13T03:58:07;21.00;43.50
35363;DHT22;21463;47.480;8.214;2022-11-13T03:59:28;21.00;43.50
35363;DHT22;21463;47.480;8.214;2022-11-13T04:00:53;21.00;43.50
35363;DHT22;21463;47.480;8.214;2022-11-13T04:02:15;21.00;43.50
35363;DHT22;21463;47.480;8.214;2022-11-13T04:03:38;21.00;43.50
35363;DHT22;21463;47.480;8.214;2022-11-13T04:04:59;21.00;43.50
35363;DHT22;21463;47.480;8.214;2022-11-13T04:06:20;21.00;43.50
35363;DHT22;21463;47.480;8.214;2022-11-13T04:07:42;21.00;43.50
35363;DHT22;21463;47.480;8.214;2022-11-13T04:09:03;21.00;43.50
35363;DHT22;21463;47.480;8.214;2022-11-13T04:10:24;21.00;43.50
35363;DHT22;21463;47.480;8.214;2022-11-13T04:11:45;21.00;43.50
35363;DHT22;21463;47.480;8.214;2022-11-13T04:13:07;21.00;43.50
35363;DHT22;21463;47.480;8.214;2022-11-13T04:14:28;21.00;43.50
35363;DHT22;21463;47.480;8.214;2022-11-13T04:15:49;21.00;43.50
35363;DHT22;21463;47.480;8.214;2022-11-13T04:17:11;21.00;43.50
35363;DHT22;21463;47.480;8.214;2022-11-13T04:18:32;21.00;43.50
35363;DHT22;21463;47.480;8.214;2022-11-13T04:19:55;21.00;43.50
35363;DHT22;21463;47.480;8.214;2022-11-13T04:21:16;21.00;43.50
35363;DHT22;21463;47.480;8.214;2022-11-13T04:22:37;21.00;43.50
35363;DHT22;21463;47.480;8.214;2022-11-13T04:23:58;21.00;43.50
35363;DHT22;21463;47.480;8.214;2022-11-13T04:25:20;21.00;43.50
35363;DHT22;21463;47.480;8.214;2022-11-13T04:26:40;21.00;43.50
35363;DHT22;21463;47.480;8.214;2022-11-13T04:28:05;21.00;43.50
35363;DHT22;21463;47.480;8.214;2022-11-13T04:29:26;21.00;43.50
35363;DHT22;21463;47.480;8.214;2022-11-13T04:31:04;21.00;43.50
35363;DHT22;21463;47.480;8.214;2022-11-13T04:32:34;20.90;43.40
35363;DHT22;21463;47.480;8.214;2022-11-13T04:34:18;21.00;43.50
35363;DHT22;21463;47.480;8.214;2022-11-13T04:35:39;21.00;43.50
35363;DHT22;21463;47.480;8.214;2022-11-13T04:37:06;21.00;43.50
35363;DHT22;21463;47.480;8.214;2022-11-13T04:38:27;21.00;43.50
35363;DHT22;21463;47.480;8.214;2022-11-13T04:39:51;21.00;43.40
35363;DHT22;21463;47.480;8.214;2022-11-13T04:41:14;21.00;43.50
35363;DHT22;21463;47.480;8.214;2022-11-13T04:42:54;21.00;43.50
35363;DHT22;21463;47.480;8.214;2022-11-13T04:44:17;21.00;43.50
35363;DHT22;21463;47.480;8.214;2022-11-13T04:45:38;21.00;43.50
35363;DHT22;21463;47.480;8.214;2022-11-13T04:47:00;21.00;43.40
35363;DHT22;21463;47.480;8.214;2022-11-13T04:48:24;21.00;43.50
35363;DHT22;21463;47.480;8.214;2022-11-13T04:49:49;21.00;43.50
35363;DHT22;21463;47.480;8.214;2022-11-13T04:51:10;21.00;43.50
35363;DHT22;21463;47.480;8.214;2022-11-13T04:52:31;21.00;43.50
35363;DHT22;21463;47.480;8.214;2022-11-13T04:53:52;21.00;43.50
35363;DHT22;21463;47.480;8.214;2022-11-13T04:55:17;21.00;43.50
35363;DHT22;21463;47.480;8.214;2022-11-13T04:56:38;21.00;43.50
35363;DHT22;21463;47.480;8.214;2022-11-13T04:57:59;21.00;43.40
35363;DHT22;21463;47.480;8.214;2022-11-13T04:59:23;21.00;43.40
35363;DHT22;21463;47.480;8.214;2022-11-13T05:00:44;21.00;43.40
35363;DHT22;21463;47.480;8.214;2022-11-13T05:02:05;21.00;43.40
35363;DHT22;21463;47.480;8.214;2022-11-13T05:03:26;21.00;43.40
35363;DHT22;21463;47.480;8.214;2022-11-13T05:04:51;21.00;43.40
35363;DHT22;21463;47.480;8.214;2022-11-13T05:06:12;21.00;44.00
35363;DHT22;21463;47.480;8.214;2022-11-13T05:07:34;21.00;43.40
35363;DHT22;21463;47.480;8.214;2022-11-13T05:08:57;21.00;43.40
35363;DHT22;21463;47.480;8.214;2022-11-13T05:10:18;21.10;43.50
35363;DHT22;21463;47.480;8.214;2022-11-13T05:11:39;21.00;43.40
35363;DHT22;21463;47.480;8.214;2022-11-13T05:13:03;21.00;43.40
35363;DHT22;21463;47.480;8.214;2022-11-13T05:14:24;21.00;43.40
35363;DHT22;21463;47.480;8.214;2022-11-13T05:15:45;21.00;43.40
35363;DHT22;21463;47.480;8.214;2022-11-13T05:17:09;21.00;43.40
35363;DHT22;21463;47.480;8.214;2022-11-13T05:18:31;21.00;43.40
35363;DHT22;21463;47.480;8.214;2022-11-13T05:19:55;21.00;43.40
35363;DHT22;21463;47.480;8.214;2022-11-13T05:21:16;21.00;43.40
35363;DHT22;21463;47.480;8.214;2022-11-13T05:22:37;21.00;43.40
35363;DHT22;21463;47.480;8.214;2022-11-13T05:23:59;21.00;43.40
35363;DHT22;21463;47.480;8.214;2022-11-13T05:25:20;21.00;43.40
35363;DHT22;21463;47.480;8.214;2022-11-13T05:26:42;21.00;43.40
35363;DHT22;21463;47.480;8.214;2022-11-13T05:28:16;21.00;43.40
35363;DHT22;21463;47.480;8.214;2022-11-13T05:29:38;21.00;43.40
35363;DHT22;21463;47.480;8.214;2022-11-13T05:31:10;21.00;43.40
35363;DHT22;21463;47.480;8.214;2022-11-13T05:32:34;21.00;43.30
35363;DHT22;21463;47.480;8.214;2022-11-13T05:33:55;21.00;43.30
35363;DHT22;21463;47.480;8.214;2022-11-13T05:35:25;21.00;43.30
35363;DHT22;21463;47.480;8.214;2022-11-13T05:36:49;21.00;43.30
35363;DHT22;21463;47.480;8.214;2022-11-13T05:38:10;21.00;43.30
35363;DHT22;21463;47.480;8.214;2022-11-13T05:39:32;21.00;43.30
35363;DHT22;21463;47.480;8.214;2022-11-13T05:40:59;21.00;43.30
35363;DHT22;21463;47.480;8.214;2022-11-13T05:42:20;21.00;43.30
35363;DHT22;21463;47.480;8.214;2022-11-13T05:43:42;21.00;43.30
35363;DHT22;21463;47.480;8.214;2022-11-13T05:45:04;21.00;43.30
35363;DHT22;21463;47.480;8.214;2022-11-13T05:46:31;21.00;43.30
35363;DHT22;21463;47.480;8.214;2022-11-13T05:47:56;21.00;43.30
35363;DHT22;21463;47.480;8.214;2022-11-13T05:49:19;21.00;43.30
35363;DHT22;21463;47.480;8.214;2022-11-13T05:50:40;21.00;43.30
35363;DHT22;21463;47.480;8.214;2022-11-13T05:52:01;21.00;43.30
35363;DHT22;21463;47.480;8.214;2022-11-13T05:53:24;21.00;43.30
35363;DHT22;21463;47.480;8.214;2022-11-13T05:54:45;21.00;43.30
35363;DHT22;21463;47.480;8.214;2022-11-13T05:56:18;21.00;43.30
35363;DHT22;21463;47.480;8.214;2022-11-13T05:57:39;21.00;43.30
35363;DHT22;21463;47.480;8.214;2022-11-13T05:59:01;21.00;43.20
35363;DHT22;21463;47.480;8.214;2022-11-13T06:00:23;21.00;43.20
35363;DHT22;21463;47.480;8.214;2022-11-13T06:01:49;21.00;43.20
35363;DHT22;21463;47.480;8.214;2022-11-13T06:03:10;21.00;43.80
35363;DHT22;21463;47.480;8.214;2022-11-13T06:04:33;21.00;43.20
35363;DHT22;21463;47.480;8.214;2022-11-13T06:05:56;21.00;43.20
35363;DHT22;21463;47.480;8.214;2022-11-13T06:07:17;21.00;43.20
35363;DHT22;21463;47.480;8.214;2022-11-13T06:08:38;21.00;43.20
35363;DHT22;21463;47.480;8.214;2022-11-13T06:10:04;21.00;43.10
35363;DHT22;21463;47.480;8.214;2022-11-13T06:11:28;21.00;43.20
35363;DHT22;21463;47.480;8.214;2022-11-13T06:12:53;21.00;43.10
35363;DHT22;21463;47.480;8.214;2022-11-13T06:14:15;21.00;43.10
35363;DHT22;21463;47.480;8.214;2022-11-13T06:15:35;21.00;43.10
35363;DHT22;21463;47.480;8.214;2022-11-13T06:16:56;21.00;43.10
35363;DHT22;21463;47.480;8.214;2022-11-13T06:18:26;21.00;43.10
35363;DHT22;21463;47.480;8.214;2022-11-13T06:19:47;21.10;43.20
35363;DHT22;21463;47.480;8.214;2022-11-13T06:21:19;21.00;43.10
35363;DHT22;21463;47.480;8.214;2022-11-13T06:22:41;21.00;43.10
35363;DHT22;21463;47.480;8.214;2022-11-13T06:24:03;21.00;43.10
35363;DHT22;21463;47.480;8.214;2022-11-13T06:25:24;21.00;43.10
35363;DHT22;21463;47.480;8.214;2022-11-13T06:26:46;21.00;43.10
35363;DHT22;21463;47.480;8.214;2022-11-13T06:28:08;21.00;43.10
35363;DHT22;21463;47.480;8.214;2022-11-13T06:29:29;21.00;43.10
35363;DHT22;21463;47.480;8.214;2022-11-13T06:30:52;21.00;43.10
35363;DHT22;21463;47.480;8.214;2022-11-13T06:32:14;21.00;43.10
35363;DHT22;21463;47.480;8.214;2022-11-13T06:33:35;21.00;43.00
35363;DHT22;21463;47.480;8.214;2022-11-13T06:34:57;21.00;43.00
35363;DHT22;21463;47.480;8.214;2022-11-13T06:36:21;21.00;43.00
35363;DHT22;21463;47.480;8.214;2022-11-13T06:37:42;21.00;43.00
35363;DHT22;21463;47.480;8.214;2022-11-13T06:39:07;21.00;43.10
35363;DHT22;21463;47.480;8.214;2022-11-13T06:40:29;21.00;43.00
35363;DHT22;21463;47.480;8.214;2022-11-13T06:41:51;21.00;43.00
35363;DHT22;21463;47.480;8.214;2022-11-13T06:43:14;21.00;43.00
35363;DHT22;21463;47.480;8.214;2022-11-13T06:44:39;21.00;43.00
35363;DHT22;21463;47.480;8.214;2022-11-13T06:46:03;21.00;43.00
35363;DHT22;21463;47.480;8.214;2022-11-13T06:47:24;21.00;42.90
35363;DHT22;21463;47.480;8.214;2022-11-13T06:48:46;21.00;42.90
35363;DHT22;21463;47.480;8.214;2022-11-13T06:50:07;21.00;42.90
35363;DHT22;21463;47.480;8.214;2022-11-13T06:51:29;21.00;43.00
35363;DHT22;21463;47.480;8.214;2022-11-13T06:52:51;21.00;43.00
35363;DHT22;21463;47.480;8.214;2022-11-13T06:54:17;20.90;42.90
35363;DHT22;21463;47.480;8.214;2022-11-13T06:55:44;21.00;42.90
35363;DHT22;21463;47.480;8.214;2022-11-13T06:57:07;21.00;42.90
35363;DHT22;21463;47.480;8.214;2022-11-13T06:58:28;21.00;42.90
35363;DHT22;21463;47.480;8.214;2022-11-13T06:59:51;21.00;42.90
35363;DHT22;21463;47.480;8.214;2022-11-13T07:01:16;21.00;42.90
35363;DHT22;21463;47.480;8.214;2022-11-13T07:02:37;21.00;42.80
35363;DHT22;21463;47.480;8.214;2022-11-13T07:03:58;21.00;42.80
35363;DHT22;21463;47.480;8.214;2022-11-13T07:05:19;21.00;42.80
35363;DHT22;21463;47.480;8.214;2022-11-13T07:06:40;21.00;42.80
35363;DHT22;21463;47.480;8.214;2022-11-13T07:08:01;21.00;42.80
35363;DHT22;21463;47.480;8.214;2022-11-13T07:09:22;21.00;42.80
35363;DHT22;21463;47.480;8.214;2022-11-13T07:10:51;21.00;42.80
35363;DHT22;21463;47.480;8.214;2022-11-13T07:12:13;21.00;42.80
35363;DHT22;21463;47.480;8.214;2022-11-13T07:13:36;21.00;42.80
35363;DHT22;21463;47.480;8.214;2022-11-13T07:15:07;21.00;42.80
35363;DHT22;21463;47.480;8.214;2022-11-13T07:16:28;21.00;42.80
35363;DHT22;21463;47.480;8.214;2022-11-13T07:18:09;21.00;42.80
35363;DHT22;21463;47.480;8.214;2022-11-13T07:19:33;21.00;42.70
35363;DHT22;21463;47.480;8.214;2022-11-13T07:21:11;21.00;43.30
35363;DHT22;21463;47.480;8.214;2022-11-13T07:22:35;21.00;42.70
35363;DHT22;21463;47.480;8.214;2022-11-13T07:23:57;20.90;42.70
35363;DHT22;21463;47.480;8.214;2022-11-13T07:25:23;21.00;42.70
35363;DHT22;21463;47.480;8.214;2022-11-13T07:26:44;21.00;42.70
35363;DHT22;21463;47.480;8.214;2022-11-13T07:28:05;21.00;42.70
35363;DHT22;21463;47.480;8.214;2022-11-13T07:29:26;21.00;42.70
35363;DHT22;21463;47.480;8.214;2022-11-13T07:30:51;21.00;42.70
35363;DHT22;21463;47.480;8.214;2022-11-13T07:32:28;21.00;42.70
35363;DHT22;21463;47.480;8.214;2022-11-13T07:33:49;21.00;42.70
35363;DHT22;21463;47.480;8.214;2022-11-13T07:35:12;21.00;42.70
35363;DHT22;21463;47.480;8.214;2022-11-13T07:36:33;21.00;42.60
35363;DHT22;21463;47.480;8.214;2022-11-13T07:37:56;21.00;42.70
35363;DHT22;21463;47.480;8.214;2022-11-13T07:39:18;21.00;42.60
35363;DHT22;21463;47.480;8.214;2022-11-13T07:40:39;21.00;42.60
35363;DHT22;21463;47.480;8.214;2022-11-13T07:42:00;21.00;42.60
35363;DHT22;21463;47.480;8.214;2022-11-13T07:43:21;21.00;42.60
35363;DHT22;21463;47.480;8.214;2022-11-13T07:44:47;21.00;42.60
35363;DHT22;21463;47.480;8.214;2022-11-13T07:46:14;21.00;42.60
35363;DHT22;21463;47.480;8.214;2022-11-13T07:47:36;21.00;42.60
35363;DHT22;21463;47.480;8.214;2022-11-13T07:48:58;21.00;42.60
35363;DHT22;21463;47.480;8.214;2022-11-13T07:50:19;21.00;42.60
35363;DHT22;21463;47.480;8.214;2022-11-13T07:51:44;21.00;42.60
35363;DHT22;21463;47.480;8.214;2022-11-13T07:53:06;21.00;42.60
35363;DHT22;21463;47.480;8.214;2022-11-13T07:54:28;21.00;42.60
35363;DHT22;21463;47.480;8.214;2022-11-13T07:55:49;20.90;42.60
35363;DHT22;21463;47.480;8.214;2022-11-13T07:57:14;21.00;42.60
35363;DHT22;21463;47.480;8.214;2022-11-13T07:58:35;21.00;42.60
35363;DHT22;21463;47.480;8.214;2022-11-13T07:59:58;21.00;42.60
35363;DHT22;21463;47.480;8.214;2022-11-13T08:01:22;21.00;42.50
35363;DHT22;21463;47.480;8.214;2022-11-13T08:02:42;21.00;42.50
35363;DHT22;21463;47.480;8.214;2022-11-13T08:04:04;21.00;42.50
35363;DHT22;21463;47.480;8.214;2022-11-13T08:05:29;21.00;42.50
35363;DHT22;21463;47.480;8.214;2022-11-13T08:06:50;21.00;42.50
35363;DHT22;21463;47.480;8.214;2022-11-13T08:08:16;21.00;42.50
35363;DHT22;21463;47.480;8.214;2022-11-13T08:09:37;21.00;42.50
35363;DHT22;21463;47.480;8.214;2022-11-13T08:11:05;21.00;42.50
35363;DHT22;21463;47.480;8.214;2022-11-13T08:12:30;21.00;42.50
35363;DHT22;21463;47.480;8.214;2022-11-13T08:13:51;20.90;42.40
35363;DHT22;21463;47.480;8.214;2022-11-13T08:15:13;21.00;42.40
35363;DHT22;21463;47.480;8.214;2022-11-13T08:16:34;21.00;42.40
35363;DHT22;21463;47.480;8.214;2022-11-13T08:17:56;21.00;42.40
35363;DHT22;21463;47.480;8.214;2022-11-13T08:19:18;20.90;42.30
35363;DHT22;21463;47.480;8.214;2022-11-13T08:20:40;21.00;42.40
35363;DHT22;21463;47.480;8.214;2022-11-13T08:22:02;21.00;42.40
35363;DHT22;21463;47.480;8.214;2022-11-13T08:23:26;21.00;42.40
35363;DHT22;21463;47.480;8.214;2022-11-13T08:24:48;21.00;42.40
35363;DHT22;21463;47.480;8.214;2022-11-13T08:26:10;21.00;42.40
35363;DHT22;21463;47.480;8.214;2022-11-13T08:27:33;21.00;42.40
35363;DHT22;21463;47.480;8.214;2022-11-13T08:28:54;21.00;42.30
35363;DHT22;21463;47.480;8.214;2022-11-13T08:30:17;21.00;42.40
35363;DHT22;21463;47.480;8.214;2022-11-13T08:31:39;21.00;42.30
35363;DHT22;21463;47.480;8.214;2022-11-13T08:33:02;21.00;42.30
35363;DHT22;21463;47.480;8.214;2022-11-13T08:34:24;21.00;42.30
35363;DHT22;21463;47.480;8.214;2022-11-13T08:35:55;21.10;42.30
35363;DHT22;21463;47.480;8.214;2022-11-13T08:37:24;20.90;42.20
35363;DHT22;21463;47.480;8.214;2022-11-13T08:38:47;21.00;42.30
35363;DHT22;21463;47.480;8.214;2022-11-13T08:40:11;21.00;42.30
35363;DHT22;21463;47.480;8.214;2022-11-13T08:41:51;21.00;42.30
35363;DHT22;21463;47.480;8.214;2022-11-13T08:43:14;21.00;42.20
35363;DHT22;21463;47.480;8.214;2022-11-13T08:44:37;21.00;42.20
35363;DHT22;21463;47.480;8.214;2022-11-13T08:45:58;21.00;42.20
35363;DHT22;21463;47.480;8.214;2022-11-13T08:47:19;21.00;42.30
35363;DHT22;21463;47.480;8.214;2022-11-13T08:48:48;21.00;42.30
35363;DHT22;21463;47.480;8.214;2022-11-13T08:50:13;21.00;42.30
35363;DHT22;21463;47.480;8.214;2022-11-13T08:51:40;21.00;42.30